Time;durP1;ratioP1;P1;durP2;ratioP2;P2;SDS_P1;SDS_P2;PMS_P1;PMS_P2;Temp;Humidity;BMP_temperature;BMP_pressure;BME280_temperature;BME280_humidity;BME280_pressure;Samples;Min_cycle;Max_cycle;Signal;HPM_P1;HPM_P2
2022/07/30 00:01:49;;;;;;;3.35;2.55;;;19.20;1.00;;;;;;5006358;28;20242;-85
2022/07/30 00:04:14;;;;;;;3.05;2.13;;;19.10;1.00;;;;;;5007822;28;20168;-86
2022/07/30 00:06:40;;;;;;;6.53;2.00;;;20.30;1.00;;;;;;5006522;28;20186;-85
2022/07/30 00:09:06;;;;;;;4.57;2.40;;;19.10;1.00;;;;;;5006095;28;20222;-87
2022/07/30 00:11:31;;;;;;;6.55;2.28;;;19.30;1.00;;;;;;5006697;28;20210;-86
2022/07/30 00:13:57;;;;;;;3.55;2.22;;;18.90;1.00;;;;;;5005703;28;20262;-85
2022/07/30 00:16:23;;;;;;;4.43;2.35;;;19.10;1.00;;;;;;5006441;28;20238;-86
2022/07/30 00:18:48;;;;;;;4.97;2.60;;;19.30;1.00;;;;;;5005994;28;20218;-86
2022/07/30 00:21:14;;;;;;;3.33;2.47;;;19.10;1.00;;;;;;5014255;28;20230;-87
2022/07/30 00:23:39;;;;;;;3.13;2.08;;;19.40;1.00;;;;;;5007212;28;20263;-86
2022/07/30 00:26:05;;;;;;;3.47;2.20;;;19.70;1.00;;;;;;5006234;28;20669;-86
2022/07/30 00:28:31;;;;;;;5.50;2.33;;;19.80;1.00;;;;;;5005607;28;20215;-86
2022/07/30 00:30:57;;;;;;;3.38;2.20;;;19.50;1.00;;;;;;5004239;28;20599;-86
2022/07/30 00:33:23;;;;;;;5.00;2.70;;;18.90;1.00;;;;;;5004930;28;20202;-86
2022/07/30 00:35:48;;;;;;;2.22;1.90;;;19.10;1.00;;;;;;5005264;28;20187;-85
2022/07/30 00:38:14;;;;;;;2.67;2.20;;;20.10;1.00;;;;;;5005277;28;20214;-85
2022/07/30 00:40:40;;;;;;;4.20;2.20;;;19.90;1.00;;;;;;5006230;28;20211;-85
2022/07/30 00:43:05;;;;;;;4.60;2.55;;;19.50;1.00;;;;;;5005694;28;20306;-85
2022/07/30 00:45:31;;;;;;;4.05;2.33;;;20.00;1.00;;;;;;5006939;28;20188;-86
2022/07/30 00:48:00;;;;;;;4.22;2.60;;;18.80;1.00;;;;;;5005786;28;20180;-86
2022/07/30 00:50:26;;;;;;;4.38;2.10;;;18.90;1.00;;;;;;5006032;28;20275;-86
2022/07/30 00:52:51;;;;;;;3.67;2.35;;;19.00;1.00;;;;;;5013151;28;20282;-86
2022/07/30 00:55:17;;;;;;;4.15;2.47;;;19.00;1.00;;;;;;5007665;28;20238;-86
2022/07/30 00:57:44;;;;;;;11.43;2.30;;;19.50;1.00;;;;;;5005483;28;20740;-87
2022/07/30 01:00:13;;;;;;;3.72;2.20;;;20.00;1.00;;;;;;5013227;28;20184;-86
2022/07/30 01:02:39;;;;;;;7.72;2.58;;;18.70;1.00;;;;;;5015802;28;20227;-86
2022/07/30 01:05:05;;;;;;;3.70;2.55;;;18.90;1.00;;;;;;5006760;28;20210;-88
2022/07/30 01:07:31;;;;;;;4.75;2.22;;;18.70;1.00;;;;;;5006164;28;20624;-86
2022/07/30 01:09:57;;;;;;;5.68;2.65;;;18.70;1.00;;;;;;5007543;28;20286;-86
2022/07/30 01:12:25;;;;;;;5.80;2.60;;;19.50;1.00;;;;;;5006582;28;20258;-87
2022/07/30 01:14:52;;;;;;;4.78;2.70;;;18.60;1.00;;;;;;5006558;28;20742;-86
2022/07/30 01:17:18;;;;;;;7.32;2.40;;;18.60;1.00;;;;;;5015874;28;20215;-87
2022/07/30 01:19:51;;;;;;;2.95;2.40;;;19.20;1.00;;;;;;5005616;28;20262;-88
2022/07/30 01:22:27;;;;;;;5.03;2.70;;;18.60;1.00;;;;;;5013379;28;20283;-87
2022/07/30 01:25:19;;;;;;;5.85;2.78;;;18.50;1.00;;;;;;5007002;28;20179;-87
2022/07/30 01:27:49;;;;;;;5.25;2.83;;;18.50;1.00;;;;;;5017308;28;20179;-88
2022/07/30 01:30:19;;;;;;;5.07;3.00;;;18.40;1.00;;;;;;5016971;28;20183;-89
2022/07/30 01:32:46;;;;;;;4.63;3.13;;;18.40;23.00;;;;;;5008956;28;20203;-86
2022/07/30 01:35:13;;;;;;;3.28;2.95;;;19.10;10.60;;;;;;5019551;28;20650;-86
2022/07/30 01:37:42;;;;;;;7.70;3.50;;;19.30;22.70;;;;;;5011800;28;20249;-86
2022/07/30 01:40:08;;;;;;;5.40;3.30;;;19.40;21.50;;;;;;5021092;28;20183;-86
2022/07/30 01:42:36;;;;;;;6.10;3.58;;;18.30;52.20;;;;;;5013260;28;20200;-86
2022/07/30 01:45:02;;;;;;;9.85;4.63;;;18.30;95.80;;;;;;5015931;28;20266;-87
2022/07/30 01:47:29;;;;;;;6.15;3.88;;;18.10;99.90;;;;;;5017923;28;20195;-87
2022/07/30 01:49:57;;;;;;;5.43;3.90;;;18.90;99.90;;;;;;5009765;28;20199;-88
2022/07/30 01:52:25;;;;;;;7.55;3.90;;;18.00;99.90;;;;;;5009869;28;20233;-88
2022/07/30 01:54:54;;;;;;;7.40;4.55;;;18.70;99.90;;;;;;5018158;28;20249;-87
2022/07/30 01:57:20;;;;;;;8.63;4.53;;;18.40;99.90;;;;;;5009475;28;20286;-86
2022/07/30 01:59:50;;;;;;;6.13;4.43;;;18.00;99.90;;;;;;5008853;28;20211;-86
2022/07/30 02:02:16;;;;;;;6.53;3.85;;;17.70;99.90;;;;;;5009313;28;20282;-87
2022/07/30 02:04:42;;;;;;;5.45;4.60;;;17.50;99.90;;;;;;5009355;28;20267;-87
2022/07/30 02:07:17;;;;;;;5.28;4.07;;;17.60;99.90;;;;;;5009544;28;20184;-88
2022/07/30 02:10:03;;;;;;;5.10;3.92;;;17.50;99.90;;;;;;5009596;28;20594;-88
2022/07/30 02:12:31;;;;;;;7.43;4.53;;;17.40;99.90;;;;;;5024616;28;20257;-89
2022/07/30 02:15:09;;;;;;;6.80;5.00;;;18.30;99.90;;;;;;5008697;28;20183;-86
2022/07/30 02:17:53;;;;;;;6.63;4.88;;;17.40;99.90;;;;;;5009574;28;20298;-87
2022/07/30 02:20:23;;;;;;;6.90;4.70;;;17.40;99.90;;;;;;5009440;28;20175;-86
2022/07/30 02:22:51;;;;;;;6.55;5.15;;;17.30;99.90;;;;;;5008470;28;20238;-86
2022/07/30 02:25:19;;;;;;;6.35;5.22;;;17.20;99.90;;;;;;5009098;28;20254;-86
2022/07/30 02:27:51;;;;;;;5.47;4.80;;;17.60;99.90;;;;;;5019615;28;20223;-88
2022/07/30 02:30:17;;;;;;;9.25;5.35;;;17.60;99.90;;;;;;5009035;28;20203;-87
2022/07/30 02:32:45;;;;;;;7.90;5.97;;;17.30;99.90;;;;;;5009114;28;20207;-88
2022/07/30 02:35:22;;;;;;;10.95;5.28;;;17.70;99.90;;;;;;5009731;28;20306;-88
2022/07/30 02:37:52;;;;;;;8.10;5.70;;;17.30;99.90;;;;;;5024273;28;20207;-88
2022/07/30 02:40:19;;;;;;;6.55;5.78;;;17.80;99.90;;;;;;5010403;28;20180;-87
2022/07/30 02:42:50;;;;;;;8.48;5.85;;;17.20;99.90;;;;;;5018192;28;20200;-87
2022/07/30 02:45:16;;;;;;;6.47;5.57;;;17.40;99.90;;;;;;5009398;28;20178;-86
2022/07/30 02:47:44;;;;;;;6.32;5.72;;;17.80;99.90;;;;;;5008777;28;20200;-86
2022/07/30 02:50:11;;;;;;;7.55;6.10;;;17.50;99.90;;;;;;5017773;28;20266;-86
2022/07/30 02:52:39;;;;;;;7.65;6.35;;;17.10;99.90;;;;;;5010027;28;20211;-89
2022/07/30 02:55:07;;;;;;;7.20;6.03;;;17.10;99.90;;;;;;5008730;28;20218;-89
2022/07/30 02:57:33;;;;;;;11.55;7.07;;;17.20;99.90;;;;;;5015432;28;20199;-86
2022/07/30 03:00:00;;;;;;;8.13;6.88;;;17.10;99.90;;;;;;5023937;28;20203;-86
2022/07/30 03:02:26;;;;;;;8.70;6.47;;;17.10;99.90;;;;;;5015946;28;21114;-87
2022/07/30 03:04:53;;;;;;;7.97;6.57;;;17.90;99.90;;;;;;5007943;28;20697;-88
2022/07/30 03:07:20;;;;;;;11.00;6.72;;;17.90;99.90;;;;;;5008654;28;20603;-87
2022/07/30 03:09:46;;;;;;;8.52;5.82;;;18.10;99.90;;;;;;5015805;28;20260;-88
2022/07/30 03:12:13;;;;;;;10.70;6.95;;;17.70;99.90;;;;;;5007127;28;20285;-84
2022/07/30 03:14:39;;;;;;;9.75;7.15;;;17.70;99.90;;;;;;5006538;28;20195;-85
2022/07/30 03:17:07;;;;;;;13.95;8.82;;;18.40;99.90;;;;;;5006773;28;20626;-87
2022/07/30 03:19:36;;;;;;;13.77;8.38;;;17.30;99.90;;;;;;5014670;28;20263;-81
2022/07/30 03:22:05;;;;;;;10.68;7.85;;;17.30;99.90;;;;;;5008176;28;20210;-81
2022/07/30 03:24:32;;;;;;;11.18;7.38;;;17.50;99.90;;;;;;5007328;28;20178;-82
2022/07/30 03:26:59;;;;;;;11.40;8.30;;;16.80;99.90;;;;;;5007283;28;20187;-84
2022/07/30 03:29:27;;;;;;;11.18;7.63;;;16.80;99.90;;;;;;5015163;28;20203;-86
2022/07/30 03:31:53;;;;;;;8.05;6.35;;;16.80;99.90;;;;;;5006638;28;20210;-81
2022/07/30 03:34:20;;;;;;;7.20;5.90;;;16.80;99.90;;;;;;5006404;28;20203;-83
2022/07/30 03:36:46;;;;;;;11.02;6.55;;;16.80;99.90;;;;;;5007755;28;20175;-82
2022/07/30 03:39:12;;;;;;;20.00;6.32;;;16.80;99.90;;;;;;5007690;28;20768;-84
2022/07/30 03:41:39;;;;;;;7.68;5.57;;;17.70;99.90;;;;;;5015155;28;20200;-83
2022/07/30 03:44:06;;;;;;;7.97;5.65;;;17.60;99.90;;;;;;5008859;28;20179;-81
2022/07/30 03:46:33;;;;;;;7.97;5.53;;;17.00;99.90;;;;;;5008872;28;20214;-82
2022/07/30 03:48:59;;;;;;;8.32;5.30;;;16.70;99.90;;;;;;5013719;28;20195;-83
2022/07/30 03:51:26;;;;;;;8.52;5.65;;;17.30;99.90;;;;;;5009193;28;20607;-84
2022/07/30 03:53:52;;;;;;;9.43;7.15;;;16.70;99.90;;;;;;5007040;28;20183;-81
2022/07/30 03:56:17;;;;;;;10.45;8.63;;;17.70;99.90;;;;;;5009927;28;20245;-83
2022/07/30 03:58:43;;;;;;;8.20;7.35;;;17.90;99.90;;;;;;5008347;28;20203;-81
2022/07/30 04:01:09;;;;;;;8.70;7.65;;;16.70;99.90;;;;;;5007467;28;20318;-81
2022/07/30 04:03:34;;;;;;;10.80;7.47;;;17.00;99.90;;;;;;5008640;28;20251;-83
2022/07/30 04:06:00;;;;;;;8.38;6.97;;;16.80;99.90;;;;;;5008004;28;20262;-83
2022/07/30 04:08:27;;;;;;;10.00;7.00;;;17.70;99.90;;;;;;5008055;28;20195;-82
2022/07/30 04:10:53;;;;;;;9.00;6.85;;;16.70;99.90;;;;;;5007081;28;20202;-82
2022/07/30 04:13:19;;;;;;;7.63;5.95;;;16.70;99.90;;;;;;5006734;28;20658;-82
2022/07/30 04:15:53;;;;;;;8.63;6.65;;;16.70;99.90;;;;;;5006960;28;20266;-82
2022/07/30 04:18:19;;;;;;;7.20;6.50;;;17.50;99.90;;;;;;5008105;28;20232;-82
2022/07/30 04:20:47;;;;;;;7.57;6.75;;;17.40;99.90;;;;;;5014742;28;20672;-83
2022/07/30 04:23:14;;;;;;;9.27;7.72;;;17.00;99.90;;;;;;5013729;28;20187;-84
2022/07/30 04:25:42;;;;;;;7.53;6.72;;;16.70;99.90;;;;;;5014170;28;20179;-82
2022/07/30 04:28:09;;;;;;;7.68;6.00;;;16.80;99.90;;;;;;5012670;28;20184;-82
2022/07/30 04:30:35;;;;;;;7.45;6.82;;;17.30;99.90;;;;;;5008495;28;20576;-81
2022/07/30 04:33:02;;;;;;;9.23;7.30;;;16.70;99.90;;;;;;5006078;28;20227;-84
2022/07/30 04:35:32;;;;;;;11.60;7.40;;;16.50;99.90;;;;;;5014621;28;20290;-83
2022/07/30 04:37:59;;;;;;;9.07;7.25;;;16.50;99.90;;;;;;5013021;28;20294;-81
2022/07/30 04:40:24;;;;;;;11.43;6.85;;;16.50;99.90;;;;;;5006315;28;20262;-81
2022/07/30 04:42:50;;;;;;;7.53;6.80;;;16.50;99.90;;;;;;5006091;28;20302;-83
2022/07/30 04:45:19;;;;;;;7.22;6.00;;;16.10;99.90;;;;;;5006739;28;20172;-83
2022/07/30 04:47:45;;;;;;;9.05;6.80;;;17.00;99.90;;;;;;5005485;28;20651;-85
2022/07/30 04:50:11;;;;;;;7.05;6.35;;;16.60;99.90;;;;;;5006495;28;20230;-83
2022/07/30 04:52:37;;;;;;;8.27;7.18;;;17.30;99.90;;;;;;5006863;28;20585;-83
2022/07/30 04:55:05;;;;;;;9.70;6.50;;;17.00;99.90;;;;;;5007100;28;20542;-82
2022/07/30 04:57:32;;;;;;;8.80;6.53;;;16.70;99.90;;;;;;5008967;28;20704;-82
2022/07/30 04:59:58;;;;;;;7.45;5.53;;;16.70;99.90;;;;;;5015116;28;20215;-82
2022/07/30 05:02:28;;;;;;;7.15;5.78;;;16.70;99.90;;;;;;5006654;28;20246;-81
2022/07/30 05:04:54;;;;;;;5.88;5.30;;;16.90;99.90;;;;;;5007252;28;20266;-82
2022/07/30 05:07:21;;;;;;;6.10;5.50;;;16.60;99.90;;;;;;5007132;28;20187;-82
2022/07/30 05:09:47;;;;;;;6.72;5.50;;;17.10;99.90;;;;;;5005878;28;20270;-85
2022/07/30 05:12:13;;;;;;;6.65;4.88;;;16.70;99.90;;;;;;5005384;28;20203;-82
2022/07/30 05:14:38;;;;;;;6.78;5.53;;;17.50;99.90;;;;;;5006757;28;20269;-83
2022/07/30 05:17:04;;;;;;;6.45;5.70;;;16.70;99.90;;;;;;5006780;28;20191;-83
2022/07/30 05:19:30;;;;;;;11.52;7.88;;;17.60;99.90;;;;;;5004856;28;20206;-85
2022/07/30 05:21:55;;;;;;;9.85;7.80;;;17.40;99.90;;;;;;5006407;28;20279;-81
2022/07/30 05:24:21;;;;;;;9.40;7.03;;;16.80;99.90;;;;;;5006585;28;20187;-81
2022/07/30 05:26:47;;;;;;;6.90;5.97;;;16.90;99.90;;;;;;5007071;28;20184;-83
2022/07/30 05:29:13;;;;;;;8.15;6.25;;;16.80;99.90;;;;;;5006339;28;20195;-86
2022/07/30 05:31:39;;;;;;;6.97;6.22;;;16.80;99.90;;;;;;5004922;28;20203;-85
2022/07/30 05:34:05;;;;;;;7.47;6.10;;;16.80;99.90;;;;;;5014055;28;20591;-81
2022/07/30 05:36:32;;;;;;;7.53;6.43;;;16.80;99.90;;;;;;5005146;28;20274;-83
2022/07/30 05:38:57;;;;;;;8.70;6.13;;;16.90;99.90;;;;;;5004784;28;20322;-84
2022/07/30 05:41:23;;;;;;;6.70;6.10;;;17.30;99.90;;;;;;5013290;28;20286;-85
2022/07/30 05:43:49;;;;;;;8.55;7.00;;;16.80;99.90;;;;;;5006522;28;20180;-82
2022/07/30 05:46:14;;;;;;;9.20;6.43;;;16.70;99.90;;;;;;5006071;28;20194;-82
2022/07/30 05:48:40;;;;;;;8.93;6.13;;;16.80;99.90;;;;;;5005183;28;20207;-81
2022/07/30 05:51:05;;;;;;;7.43;6.72;;;16.70;99.90;;;;;;5005820;28;20191;-85
2022/07/30 05:53:31;;;;;;;8.05;6.00;;;16.80;99.90;;;;;;5002168;28;20222;-84
2022/07/30 05:55:57;;;;;;;9.40;6.15;;;17.80;99.90;;;;;;5001950;28;20187;-83
2022/07/30 05:58:23;;;;;;;7.28;6.63;;;17.70;99.90;;;;;;5003657;28;20294;-81
2022/07/30 06:00:50;;;;;;;7.82;6.28;;;16.70;99.90;;;;;;5005376;28;20190;-81
2022/07/30 06:03:15;;;;;;;9.02;7.05;;;17.20;99.90;;;;;;5001535;28;20592;-85
2022/07/30 06:05:41;;;;;;;5.63;5.13;;;16.80;99.90;;;;;;5004783;28;20190;-85
2022/07/30 06:08:07;;;;;;;7.32;6.60;;;16.90;99.90;;;;;;5005811;28;20262;-81
2022/07/30 06:10:33;;;;;;;9.70;6.88;;;17.50;99.90;;;;;;5006008;28;20179;-84
2022/07/30 06:12:59;;;;;;;7.70;7.00;;;16.80;99.90;;;;;;5007713;28;20204;-84
2022/07/30 06:15:25;;;;;;;8.35;7.03;;;17.10;99.90;;;;;;5008354;28;20190;-81
2022/07/30 06:17:50;;;;;;;7.75;6.45;;;16.80;99.90;;;;;;5016639;28;20210;-81
2022/07/30 06:20:17;;;;;;;8.93;6.07;;;17.10;99.90;;;;;;5007415;28;20210;-83
2022/07/30 06:22:43;;;;;;;8.38;7.43;;;16.80;99.90;;;;;;5021333;28;20200;-84
2022/07/30 06:25:09;;;;;;;11.18;7.80;;;18.00;99.90;;;;;;5005179;28;20184;-81
2022/07/30 06:27:36;;;;;;;9.65;6.60;;;17.40;99.90;;;;;;5005482;28;20599;-81
2022/07/30 06:30:07;;;;;;;6.95;6.10;;;17.30;99.90;;;;;;5004990;28;20176;-81
2022/07/30 06:32:33;;;;;;;9.27;6.97;;;17.20;99.90;;;;;;5006390;28;20636;-82
2022/07/30 06:34:59;;;;;;;8.00;7.07;;;17.30;99.90;;;;;;5006895;28;20208;-84
2022/07/30 06:37:25;;;;;;;11.55;7.63;;;17.40;99.90;;;;;;5004699;28;20543;-81
2022/07/30 06:39:50;;;;;;;11.77;7.32;;;17.50;99.90;;;;;;5006166;28;20175;-82
2022/07/30 06:42:16;;;;;;;9.13;7.63;;;17.50;99.90;;;;;;5004984;28;20760;-81
2022/07/30 06:44:42;;;;;;;11.63;7.57;;;18.50;99.90;;;;;;5005320;28;20191;-84
2022/07/30 06:47:27;;;;;;;8.05;6.68;;;18.20;99.90;;;;;;5005553;28;20179;-84
2022/07/30 06:49:52;;;;;;;9.98;6.93;;;17.80;99.90;;;;;;4981724;28;20638;-81
2022/07/30 06:52:18;;;;;;;10.77;6.88;;;17.80;99.90;;;;;;5005293;28;20799;-83
2022/07/30 06:54:45;;;;;;;7.90;6.32;;;18.20;99.90;;;;;;5006458;28;20180;-81
2022/07/30 06:57:10;;;;;;;8.90;6.75;;;17.80;99.90;;;;;;5006340;28;20665;-81
2022/07/30 06:59:36;;;;;;;10.00;7.13;;;17.90;99.90;;;;;;5006134;28;20191;-83
2022/07/30 07:02:02;;;;;;;7.88;6.65;;;18.10;99.90;;;;;;5003482;28;20210;-85
2022/07/30 07:04:27;;;;;;;9.35;6.93;;;17.80;99.90;;;;;;5005600;28;20176;-83
2022/07/30 07:06:53;;;;;;;6.57;5.72;;;17.80;99.90;;;;;;5005076;28;21132;-81
2022/07/30 07:09:18;;;;;;;7.68;6.25;;;18.00;99.90;;;;;;5006410;28;20732;-83
2022/07/30 07:11:44;;;;;;;8.13;5.35;;;18.00;99.90;;;;;;5002423;28;21133;-81
2022/07/30 07:14:10;;;;;;;7.68;5.50;;;18.30;99.90;;;;;;5007285;28;20180;-82
2022/07/30 07:16:35;;;;;;;7.90;5.30;;;18.60;99.90;;;;;;5007255;28;20661;-81
2022/07/30 07:19:01;;;;;;;6.72;5.65;;;18.80;99.90;;;;;;5007162;28;20211;-82
2022/07/30 07:21:26;;;;;;;6.13;5.53;;;18.30;99.90;;;;;;5007699;28;20203;-83
2022/07/30 07:23:52;;;;;;;5.55;5.05;;;18.50;99.90;;;;;;5007004;28;20187;-84
2022/07/30 07:26:17;;;;;;;6.10;4.75;;;18.60;99.90;;;;;;5010579;28;20180;-81
2022/07/30 07:28:43;;;;;;;4.95;4.45;;;18.70;99.90;;;;;;5007860;28;20215;-84
2022/07/30 07:31:09;;;;;;;5.45;4.40;;;18.60;99.90;;;;;;5007094;28;20273;-84
2022/07/30 07:33:36;;;;;;;5.03;4.50;;;19.00;99.90;;;;;;5006695;28;20662;-83
2022/07/30 07:36:02;;;;;;;4.70;4.20;;;18.70;99.90;;;;;;5008305;28;20184;-81
2022/07/30 07:38:28;;;;;;;5.07;4.68;;;18.80;99.90;;;;;;5014462;28;20208;-81
2022/07/30 07:40:54;;;;;;;4.40;4.00;;;19.00;99.90;;;;;;5009331;28;20529;-83
2022/07/30 07:43:19;;;;;;;5.40;4.80;;;19.60;99.90;;;;;;5004040;28;20247;-82
2022/07/30 07:45:45;;;;;;;4.72;4.43;;;19.10;99.90;;;;;;5007045;28;20168;-80
2022/07/30 07:48:11;;;;;;;4.57;3.97;;;19.50;99.90;;;;;;5006785;28;20268;-79
2022/07/30 07:50:36;;;;;;;4.53;4.15;;;19.40;99.90;;;;;;5016659;28;20270;-79
2022/07/30 07:53:02;;;;;;;5.13;3.90;;;19.40;99.90;;;;;;5005156;28;20757;-78
2022/07/30 07:55:28;;;;;;;4.50;4.10;;;19.40;99.90;;;;;;5004812;28;20194;-78
2022/07/30 07:57:54;;;;;;;4.63;4.22;;;19.40;99.90;;;;;;5004798;28;20769;-78
2022/07/30 08:00:20;;;;;;;5.00;3.97;;;19.40;99.90;;;;;;5005478;28;20199;-79
2022/07/30 08:02:46;;;;;;;4.35;3.95;;;19.40;99.90;;;;;;5005064;28;20206;-79
2022/07/30 08:05:12;;;;;;;4.55;4.20;;;19.30;99.90;;;;;;5004973;28;20228;-78
2022/07/30 08:07:39;;;;;;;6.20;3.90;;;19.30;99.90;;;;;;5006237;28;20720;-78
2022/07/30 08:10:05;;;;;;;5.18;4.50;;;19.40;99.90;;;;;;5005907;28;20184;-78
2022/07/30 08:12:31;;;;;;;3.90;3.50;;;19.50;99.90;;;;;;5004188;28;20211;-80
2022/07/30 08:14:57;;;;;;;3.92;3.63;;;19.50;99.90;;;;;;5005319;28;20199;-78
2022/07/30 08:17:23;;;;;;;4.45;4.05;;;19.90;99.90;;;;;;5004258;28;20187;-78
2022/07/30 08:19:50;;;;;;;4.30;3.95;;;19.70;99.90;;;;;;5005374;28;20298;-80
2022/07/30 08:22:16;;;;;;;4.22;3.83;;;19.90;99.90;;;;;;5006034;28;20270;-80
2022/07/30 08:24:42;;;;;;;5.22;4.07;;;20.40;99.90;;;;;;5002820;28;20183;-79
2022/07/30 08:27:07;;;;;;;5.03;4.20;;;20.30;99.90;;;;;;5001254;28;20249;-79
2022/07/30 08:29:33;;;;;;;4.57;3.65;;;20.50;99.90;;;;;;5004359;28;20218;-78
2022/07/30 08:31:59;;;;;;;4.50;4.10;;;20.50;99.90;;;;;;5005242;28;20215;-80
2022/07/30 08:34:25;;;;;;;4.28;3.88;;;20.70;99.90;;;;;;5004298;28;20642;-80
2022/07/30 08:36:51;;;;;;;4.03;3.60;;;20.80;99.90;;;;;;5005556;28;20195;-78
2022/07/30 08:39:16;;;;;;;4.10;3.75;;;21.00;99.90;;;;;;5003450;28;20247;-79
2022/07/30 08:41:42;;;;;;;3.47;3.17;;;21.10;99.90;;;;;;5005879;28;20229;-80
2022/07/30 08:44:10;;;;;;;4.25;3.30;;;21.80;99.90;;;;;;5003421;28;20180;-80
2022/07/30 08:46:40;;;;;;;5.35;3.50;;;21.00;99.90;;;;;;5005765;28;20258;-77
2022/07/30 08:49:06;;;;;;;4.43;4.00;;;21.20;99.90;;;;;;5005014;28;20191;-78
2022/07/30 08:51:33;;;;;;;4.03;3.63;;;20.90;99.90;;;;;;5005660;28;20862;-80
2022/07/30 08:54:00;;;;;;;4.57;4.18;;;21.30;99.90;;;;;;5004844;28;20220;-80
2022/07/30 08:56:26;;;;;;;4.05;3.65;;;20.80;99.90;;;;;;5004257;28;20561;-80
2022/07/30 08:58:53;;;;;;;4.55;3.97;;;20.90;99.90;;;;;;5002872;28;20203;-78
2022/07/30 09:01:20;;;;;;;3.95;3.60;;;20.90;99.90;;;;;;5004147;28;20211;-78
2022/07/30 09:03:45;;;;;;;3.58;3.33;;;20.90;99.90;;;;;;5002948;28;20601;-78
2022/07/30 09:06:11;;;;;;;4.00;3.60;;;21.00;99.90;;;;;;5004862;28;20183;-81
2022/07/30 09:08:37;;;;;;;4.32;3.67;;;20.90;99.90;;;;;;5004372;28;20184;-78
2022/07/30 09:11:02;;;;;;;4.40;4.05;;;21.00;99.90;;;;;;5005509;28;20187;-78
2022/07/30 09:13:40;;;;;;;3.80;3.50;;;20.80;99.90;;;;;;5002573;28;20203;-79
2022/07/30 09:16:07;;;;;;;3.88;3.58;;;20.90;99.90;;;;;;5017362;28;20249;-80
2022/07/30 09:18:38;;;;;;;4.95;3.80;;;20.90;99.90;;;;;;5004644;28;20203;-79
2022/07/30 09:21:16;;;;;;;3.60;3.35;;;21.60;99.90;;;;;;5003531;28;20188;-78
2022/07/30 09:23:58;;;;;;;3.80;3.50;;;21.30;99.90;;;;;;5004311;28;20182;-80
2022/07/30 09:26:24;;;;;;;6.45;3.67;;;21.40;99.90;;;;;;5008282;28;20548;-78
2022/07/30 09:28:51;;;;;;;4.22;3.85;;;21.50;99.90;;;;;;5004103;28;20187;-79
2022/07/30 09:31:17;;;;;;;2.95;2.75;;;21.70;99.90;;;;;;5004643;28;20648;-78
2022/07/30 09:33:45;;;;;;;3.40;3.10;;;21.80;99.90;;;;;;5003853;28;20686;-79
2022/07/30 09:36:13;;;;;;;3.33;3.03;;;21.70;99.90;;;;;;5004718;28;20980;-78
2022/07/30 09:38:50;;;;;;;3.22;2.92;;;21.70;99.90;;;;;;5002363;28;20342;-78
2022/07/30 09:41:19;;;;;;;3.42;3.13;;;22.00;89.10;;;;;;5004462;28;20598;-79
2022/07/30 09:43:49;;;;;;;3.70;3.35;;;21.80;99.90;;;;;;5002658;28;20267;-78
2022/07/30 09:46:16;;;;;;;3.88;3.47;;;21.70;99.90;;;;;;5004245;28;20214;-80
2022/07/30 09:48:44;;;;;;;3.60;3.30;;;21.50;99.90;;;;;;5007361;28;20255;-80
2022/07/30 09:51:10;;;;;;;3.95;3.63;;;22.00;99.90;;;;;;5006325;28;20195;-79
2022/07/30 09:53:51;;;;;;;4.43;3.88;;;21.60;99.90;;;;;;5005400;28;20657;-80
2022/07/30 09:56:25;;;;;;;3.88;3.50;;;21.50;99.90;;;;;;5007448;28;20179;-80
2022/07/30 09:58:51;;;;;;;3.38;3.08;;;21.60;99.90;;;;;;5005913;28;20569;-78
2022/07/30 10:01:17;;;;;;;3.88;3.50;;;21.50;99.90;;;;;;5006371;28;20196;-83
2022/07/30 10:03:44;;;;;;;4.65;3.65;;;21.50;99.90;;;;;;5006111;28;20184;-82
2022/07/30 10:06:10;;;;;;;4.50;3.60;;;21.90;99.90;;;;;;5006147;28;20175;-82
2022/07/30 10:08:49;;;;;;;4.00;3.58;;;21.40;99.90;;;;;;5003939;28;20217;-82
2022/07/30 10:11:24;;;;;;;5.93;3.80;;;21.30;99.90;;;;;;5004152;28;20203;-83
2022/07/30 10:13:55;;;;;;;4.65;3.72;;;21.70;99.90;;;;;;5004281;28;20187;-83
2022/07/30 10:16:24;;;;;;;4.25;3.50;;;21.10;99.90;;;;;;5002882;28;20560;-86
2022/07/30 10:18:50;;;;;;;3.83;3.50;;;21.20;99.90;;;;;;5014333;28;20290;-86
2022/07/30 10:21:16;;;;;;;3.80;3.50;;;21.20;99.90;;;;;;5016887;28;20208;-85
2022/07/30 10:23:42;;;;;;;4.00;3.70;;;21.30;99.90;;;;;;5019013;28;20221;-86
2022/07/30 10:26:09;;;;;;;4.50;4.10;;;21.40;99.90;;;;;;5006607;28;20184;-84
2022/07/30 10:28:35;;;;;;;3.40;3.20;;;21.90;99.90;;;;;;5015397;28;20237;-85
2022/07/30 10:31:00;;;;;;;3.80;3.47;;;22.00;99.90;;;;;;5007950;28;20191;-82
2022/07/30 10:33:29;;;;;;;3.85;3.55;;;22.10;99.90;;;;;;5006713;28;20311;-83
2022/07/30 10:35:55;;;;;;;4.15;3.40;;;21.80;99.90;;;;;;5015331;28;20183;-84
2022/07/30 10:38:37;;;;;;;3.50;3.22;;;21.90;99.90;;;;;;5007026;28;20693;-83
2022/07/30 10:41:10;;;;;;;5.32;3.58;;;21.80;99.90;;;;;;5016554;28;20179;-83
2022/07/30 10:43:59;;;;;;;3.40;3.20;;;22.10;99.90;;;;;;5008089;28;20233;-84
2022/07/30 10:46:43;;;;;;;4.65;3.33;;;22.20;99.90;;;;;;5015310;28;20180;-81
2022/07/30 10:49:14;;;;;;;3.70;3.30;;;22.30;99.90;;;;;;5015138;28;20560;-81
2022/07/30 10:51:45;;;;;;;3.33;3.03;;;22.50;99.90;;;;;;5006456;28;20253;-82
2022/07/30 10:54:32;;;;;;;3.97;3.65;;;22.60;99.90;;;;;;5008177;28;20191;-82
2022/07/30 10:57:04;;;;;;;3.70;3.38;;;22.60;99.90;;;;;;5007989;28;20201;-84
2022/07/30 10:59:54;;;;;;;8.13;3.53;;;22.60;99.90;;;;;;5014858;28;20203;-82
2022/07/30 11:02:21;;;;;;;3.50;3.20;;;22.50;99.90;;;;;;5007380;28;20217;-82
2022/07/30 11:04:48;;;;;;;3.67;3.30;;;22.50;99.90;;;;;;5006096;28;20262;-81
2022/07/30 11:07:23;;;;;;;4.10;3.70;;;23.30;99.90;;;;;;5007748;28;20176;-81
2022/07/30 11:09:51;;;;;;;4.85;4.35;;;23.00;99.90;;;;;;5013857;28;20617;-83
2022/07/30 11:12:44;;;;;;;7.45;6.78;;;22.60;99.90;;;;;;5006324;28;20202;-81
2022/07/30 11:15:13;;;;;;;5.15;3.72;;;22.70;99.90;;;;;;5005451;28;20192;-83
2022/07/30 11:17:59;;;;;;;3.40;3.10;;;22.90;99.90;;;;;;5008138;28;20183;-83
2022/07/30 11:20:26;;;;;;;3.78;3.15;;;22.90;99.90;;;;;;5014200;28;20182;-83
2022/07/30 11:22:52;;;;;;;3.60;2.97;;;22.90;64.10;;;;;;5006036;28;20243;-83
2022/07/30 11:25:21;;;;;;;3.17;2.95;;;23.00;67.60;;;;;;5005918;28;20184;-83
2022/07/30 11:27:49;;;;;;;3.67;3.00;;;23.10;71.90;;;;;;5013612;28;20187;-83
2022/07/30 11:30:14;;;;;;;4.00;2.88;;;23.20;95.50;;;;;;5013961;28;20189;-83
2022/07/30 11:32:41;;;;;;;4.45;3.67;;;23.50;51.90;;;;;;5005230;28;20199;-83
2022/07/30 11:35:19;;;;;;;3.20;2.90;;;23.30;35.40;;;;;;5013191;28;20274;-84
2022/07/30 11:38:00;;;;;;;3.10;2.80;;;23.30;25.10;;;;;;5005568;28;20614;-83
2022/07/30 11:40:30;;;;;;;3.88;3.45;;;23.40;34.50;;;;;;5012884;28;20261;-83
2022/07/30 11:43:23;;;;;;;4.78;2.80;;;23.50;12.50;;;;;;5011984;28;20204;-83
2022/07/30 11:46:05;;;;;;;3.72;3.40;;;23.40;4.30;;;;;;5013567;28;20191;-85
2022/07/30 11:48:31;;;;;;;3.00;2.80;;;23.50;29.40;;;;;;5013285;28;20187;-84
2022/07/30 11:50:56;;;;;;;3.50;3.05;;;23.40;19.70;;;;;;5005194;28;20314;-84
2022/07/30 11:53:23;;;;;;;3.35;3.03;;;23.90;15.00;;;;;;5005379;28;20186;-84
2022/07/30 11:55:54;;;;;;;3.00;2.70;;;23.40;1.00;;;;;;5006311;28;20779;-85
2022/07/30 11:58:32;;;;;;;5.43;3.60;;;23.40;14.60;;;;;;5013456;28;20254;-84
2022/07/30 12:01:02;;;;;;;6.55;3.35;;;23.40;16.50;;;;;;5006339;28;20175;-84
2022/07/30 12:03:32;;;;;;;3.67;3.10;;;23.40;6.20;;;;;;5006455;28;20179;-85
2022/07/30 12:06:08;;;;;;;2.97;2.67;;;23.20;29.70;;;;;;5005901;28;20532;-84
2022/07/30 12:08:45;;;;;;;3.30;3.00;;;23.80;1.00;;;;;;5006890;28;20836;-84
2022/07/30 12:11:12;;;;;;;3.10;2.60;;;22.20;9.80;;;;;;5015835;28;20231;-85
2022/07/30 12:13:44;;;;;;;3.28;2.75;;;22.60;14.80;;;;;;5015846;28;20611;-86
2022/07/30 12:16:12;;;;;;;2.85;2.63;;;23.10;27.00;;;;;;5013288;28;20191;-85
2022/07/30 12:18:37;;;;;;;3.10;2.90;;;22.80;9.30;;;;;;5013455;28;20210;-85
2022/07/30 12:21:10;;;;;;;4.38;3.20;;;22.60;40.20;;;;;;5005463;28;20266;-85
2022/07/30 12:23:37;;;;;;;3.58;2.97;;;22.70;44.50;;;;;;5020784;28;20284;-85
2022/07/30 12:26:04;;;;;;;3.10;2.80;;;22.70;37.50;;;;;;5014490;28;20179;-85
2022/07/30 12:28:33;;;;;;;3.30;3.00;;;22.90;26.00;;;;;;5014060;28;20191;-86
2022/07/30 12:31:01;;;;;;;3.25;2.95;;;22.90;35.60;;;;;;5005860;28;20184;-85
2022/07/30 12:33:26;;;;;;;3.85;2.97;;;23.40;2.70;;;;;;5011897;28;20223;-87
2022/07/30 12:35:55;;;;;;;3.55;3.25;;;22.70;10.80;;;;;;5004699;28;20619;-85
2022/07/30 12:38:22;;;;;;;3.50;3.20;;;22.70;27.00;;;;;;5005466;28;20207;-82
2022/07/30 12:40:58;;;;;;;5.03;3.60;;;22.90;34.40;;;;;;5004492;28;20190;-82
2022/07/30 12:43:46;;;;;;;4.43;3.38;;;22.80;56.60;;;;;;5013305;28;20167;-82
2022/07/30 12:46:15;;;;;;;4.75;3.70;;;23.10;32.00;;;;;;5013653;28;20188;-82
2022/07/30 12:48:56;;;;;;;4.30;3.75;;;23.00;25.70;;;;;;5005700;28;20267;-82
2022/07/30 12:51:25;;;;;;;4.78;4.20;;;22.90;30.20;;;;;;5004287;28;20707;-83
2022/07/30 12:53:52;;;;;;;5.07;4.38;;;22.80;53.40;;;;;;5003735;28;20183;-80